Time;durP1;ratioP1;P1;durP2;ratioP2;P2;SDS_P1;SDS_P2;PMS_P1;PMS_P2;Temp;Humidity;BMP_temperature;BMP_pressure;BME280_temperature;BME280_humidity;BME280_pressure;Samples;Min_cycle;Max_cycle;Signal;HPM_P1;HPM_P2
2023/08/27 00:01:06;;;;;;;5.20;2.42;;;21.60;91.50;;;;;;5065480;28;20033;-61
2023/08/27 00:03:31;;;;;;;5.93;2.40;;;21.60;91.60;;;;;;5068257;28;20029;-61
2023/08/27 00:05:57;;;;;;;6.13;2.15;;;21.60;91.50;;;;;;5065721;28;20465;-61
2023/08/27 00:08:23;;;;;;;6.65;2.30;;;21.60;91.50;;;;;;5065120;28;20029;-61
2023/08/27 00:10:48;;;;;;;6.07;2.33;;;21.60;91.60;;;;;;5064365;28;20021;-61
2023/08/27 00:13:14;;;;;;;4.63;2.30;;;21.60;91.60;;;;;;5065582;28;20108;-61
2023/08/27 00:15:46;;;;;;;4.25;2.22;;;21.60;91.60;;;;;;5064846;28;20055;-61
2023/08/27 00:18:11;;;;;;;5.05;2.25;;;21.50;91.70;;;;;;5054352;28;20093;-60
2023/08/27 00:20:37;;;;;;;6.35;2.72;;;21.50;91.80;;;;;;5047366;28;20140;-60
2023/08/27 00:23:04;;;;;;;3.80;2.00;;;21.50;91.80;;;;;;5048678;28;20037;-61
2023/08/27 00:25:29;;;;;;;8.43;2.50;;;21.50;91.80;;;;;;5048188;28;20041;-61
2023/08/27 00:27:55;;;;;;;6.80;2.60;;;21.50;91.80;;;;;;5052962;28;20025;-61
2023/08/27 00:30:20;;;;;;;5.40;2.30;;;21.50;91.90;;;;;;5066025;28;20100;-61
2023/08/27 00:32:46;;;;;;;6.13;1.90;;;21.50;91.90;;;;;;5063972;28;20033;-61
2023/08/27 00:35:11;;;;;;;6.13;2.20;;;21.50;91.90;;;;;;5066150;28;20063;-61
2023/08/27 00:37:37;;;;;;;3.25;2.05;;;21.50;91.90;;;;;;5047058;28;20500;-61
2023/08/27 00:40:03;;;;;;;5.47;2.22;;;21.50;91.90;;;;;;5066065;28;20043;-61
2023/08/27 00:42:29;;;;;;;4.45;2.35;;;21.40;91.90;;;;;;5064789;28;20047;-61
2023/08/27 00:44:54;;;;;;;4.18;2.15;;;21.40;91.90;;;;;;5066038;28;20052;-60
2023/08/27 00:47:20;;;;;;;5.03;2.47;;;21.40;91.90;;;;;;5062670;28;20021;-61
2023/08/27 00:49:46;;;;;;;5.32;2.17;;;21.40;91.90;;;;;;5064631;28;20078;-61
2023/08/27 00:52:11;;;;;;;4.05;2.20;;;21.40;92.00;;;;;;5047986;28;20370;-61
2023/08/27 00:54:37;;;;;;;5.03;2.15;;;21.40;92.00;;;;;;5064590;28;20024;-61
2023/08/27 00:57:03;;;;;;;3.60;2.00;;;21.40;92.00;;;;;;5047128;28;20025;-61
2023/08/27 00:59:29;;;;;;;4.20;2.00;;;21.40;92.10;;;;;;5047803;28;20021;-61
2023/08/27 01:01:55;;;;;;;10.60;2.40;;;21.40;92.10;;;;;;5047876;28;20124;-61
2023/08/27 01:04:20;;;;;;;5.95;2.33;;;21.40;92.10;;;;;;5064321;28;20119;-61
2023/08/27 01:06:46;;;;;;;4.82;2.28;;;21.30;92.20;;;;;;5045065;28;20032;-61
2023/08/27 01:09:12;;;;;;;4.43;2.15;;;21.40;92.20;;;;;;5062731;28;20037;-61
2023/08/27 01:11:47;;;;;;;3.53;2.00;;;21.30;92.20;;;;;;5065743;28;20021;-61
2023/08/27 01:14:12;;;;;;;7.10;2.30;;;21.30;92.10;;;;;;5064634;28;20401;-61
2023/08/27 01:16:38;;;;;;;4.50;2.17;;;21.30;92.10;;;;;;5047495;28;20101;-60
2023/08/27 01:19:06;;;;;;;4.22;2.00;;;21.30;92.20;;;;;;5065326;28;20137;-61
2023/08/27 01:21:32;;;;;;;4.30;2.20;;;21.30;92.30;;;;;;5047586;28;20120;-61
2023/08/27 01:23:57;;;;;;;5.32;2.13;;;21.30;92.30;;;;;;5047333;28;20072;-61
2023/08/27 01:26:36;;;;;;;6.90;2.20;;;21.30;92.30;;;;;;5061980;28;20339;-61
2023/08/27 01:29:39;;;;;;;3.67;2.05;;;21.30;92.30;;;;;;5065246;28;20029;-61
2023/08/27 01:32:26;;;;;;;4.28;1.83;;;21.30;92.40;;;;;;5031235;28;20097;-61
2023/08/27 01:34:52;;;;;;;4.30;2.03;;;21.20;92.30;;;;;;5059626;28;20037;-61
2023/08/27 01:37:17;;;;;;;7.38;1.98;;;21.30;92.40;;;;;;5047143;28;20037;-61
2023/08/27 01:39:43;;;;;;;5.07;2.00;;;21.30;92.40;;;;;;5047152;28;20081;-60
2023/08/27 01:42:09;;;;;;;4.18;1.75;;;21.20;92.30;;;;;;5063753;28;20036;-61
2023/08/27 01:44:34;;;;;;;3.60;2.00;;;21.30;92.30;;;;;;5044608;28;20025;-61
2023/08/27 01:47:00;;;;;;;6.75;2.30;;;21.20;92.30;;;;;;5047102;28;20025;-61
2023/08/27 01:49:26;;;;;;;7.43;2.20;;;21.20;92.30;;;;;;5064949;28;20029;-61
2023/08/27 01:51:51;;;;;;;5.00;1.98;;;21.20;92.30;;;;;;5063384;28;20029;-61
2023/08/27 01:54:17;;;;;;;3.00;1.63;;;21.20;92.40;;;;;;5062603;28;20037;-61
2023/08/27 01:56:43;;;;;;;5.78;1.88;;;21.20;92.40;;;;;;5063390;28;20028;-61
2023/08/27 01:59:08;;;;;;;2.17;1.73;;;21.20;92.40;;;;;;5046876;28;20029;-61
2023/08/27 02:01:34;;;;;;;5.45;2.33;;;21.20;92.70;;;;;;5063179;28;20032;-61
2023/08/27 02:03:59;;;;;;;2.65;1.60;;;21.20;92.40;;;;;;5038440;28;20059;-61
2023/08/27 02:06:25;;;;;;;3.03;1.88;;;21.20;92.40;;;;;;5039442;28;20457;-61
2023/08/27 02:08:50;;;;;;;4.32;2.13;;;21.20;92.40;;;;;;5047025;28;20430;-61
2023/08/27 02:11:16;;;;;;;3.67;2.10;;;21.10;92.40;;;;;;5064890;28;20055;-61
2023/08/27 02:13:42;;;;;;;3.60;1.92;;;21.10;92.40;;;;;;5045573;28;20103;-62
2023/08/27 02:16:07;;;;;;;5.43;2.17;;;21.20;92.40;;;;;;5063331;28;20025;-61
2023/08/27 02:18:33;;;;;;;3.85;1.88;;;21.20;92.40;;;;;;5063271;28;20131;-61
2023/08/27 02:20:58;;;;;;;8.45;1.90;;;21.20;92.40;;;;;;5063245;28;20033;-61
2023/08/27 02:23:24;;;;;;;3.60;1.60;;;21.10;92.40;;;;;;5060983;28;20044;-61
2023/08/27 02:25:49;;;;;;;2.03;1.40;;;21.10;92.40;;;;;;5045730;28;20088;-61
2023/08/27 02:28:15;;;;;;;3.55;1.70;;;21.10;92.50;;;;;;5063294;28;20036;-61
2023/08/27 02:30:40;;;;;;;4.15;1.70;;;21.10;92.50;;;;;;5061577;28;20036;-61
2023/08/27 02:33:06;;;;;;;3.15;1.70;;;21.10;92.50;;;;;;5043227;28;20041;-61
2023/08/27 02:35:31;;;;;;;3.55;1.80;;;21.10;92.50;;;;;;5044509;28;20469;-61
2023/08/27 02:37:57;;;;;;;2.88;1.83;;;21.10;92.50;;;;;;5044454;28;20048;-61
2023/08/27 02:40:22;;;;;;;2.65;1.50;;;21.10;92.50;;;;;;5044457;28;20028;-61
2023/08/27 02:42:49;;;;;;;2.85;1.77;;;21.00;92.40;;;;;;5055742;28;20037;-61
2023/08/27 02:45:14;;;;;;;2.50;1.60;;;21.00;92.50;;;;;;5061662;28;20021;-61
2023/08/27 02:47:40;;;;;;;3.60;1.73;;;21.10;92.50;;;;;;5046421;28;20032;-61
2023/08/27 02:50:06;;;;;;;2.25;1.50;;;21.00;92.50;;;;;;5061851;28;20461;-61
2023/08/27 02:52:32;;;;;;;2.28;1.65;;;21.10;92.50;;;;;;5046288;28;20083;-61
2023/08/27 02:54:57;;;;;;;3.28;1.65;;;21.00;92.50;;;;;;5062916;28;20029;-61
2023/08/27 02:57:23;;;;;;;3.70;1.60;;;21.00;92.50;;;;;;5065829;28;20093;-61
2023/08/27 02:59:48;;;;;;;2.28;1.38;;;21.00;92.50;;;;;;5068062;28;20029;-60
2023/08/27 03:02:14;;;;;;;2.67;1.45;;;21.00;92.50;;;;;;5063548;28;20033;-61
2023/08/27 03:04:39;;;;;;;2.58;1.35;;;21.00;92.50;;;;;;5067856;28;20033;-61
2023/08/27 03:07:05;;;;;;;2.47;1.83;;;21.00;92.50;;;;;;5066653;28;20029;-61
2023/08/27 03:09:30;;;;;;;2.55;1.30;;;21.00;92.50;;;;;;5066901;28;20099;-61
2023/08/27 03:11:56;;;;;;;3.80;1.58;;;21.00;92.50;;;;;;5049795;28;20165;-61
2023/08/27 03:14:22;;;;;;;2.63;1.58;;;21.00;92.40;;;;;;5066565;28;20025;-61
2023/08/27 03:16:47;;;;;;;3.90;1.60;;;21.00;92.40;;;;;;5066297;28;20476;-61
2023/08/27 03:19:13;;;;;;;2.65;1.60;;;21.00;92.40;;;;;;5066099;28;20036;-61
2023/08/27 03:21:38;;;;;;;2.03;1.38;;;21.00;92.40;;;;;;5057075;28;20049;-61
2023/08/27 03:24:04;;;;;;;3.53;1.55;;;20.90;92.40;;;;;;5065758;28;20063;-60
2023/08/27 03:26:30;;;;;;;3.83;1.35;;;20.90;92.40;;;;;;5067866;28;20040;-61
2023/08/27 03:28:55;;;;;;;1.85;1.20;;;20.90;92.50;;;;;;5065228;28;20033;-61
2023/08/27 03:31:21;;;;;;;2.45;1.40;;;20.90;92.50;;;;;;5033156;28;20017;-61
2023/08/27 03:33:46;;;;;;;2.28;1.60;;;20.90;92.50;;;;;;5049763;28;20044;-60
2023/08/27 03:36:12;;;;;;;2.45;1.58;;;20.90;92.50;;;;;;5067519;28;20485;-61
2023/08/27 03:38:38;;;;;;;5.40;1.77;;;20.90;92.50;;;;;;5064015;28;20463;-61
2023/08/27 03:41:03;;;;;;;2.63;1.40;;;20.80;92.40;;;;;;5066219;28;20060;-61
2023/08/27 03:43:29;;;;;;;2.42;1.65;;;20.90;92.40;;;;;;5049181;28;20029;-61
2023/08/27 03:45:54;;;;;;;2.88;1.48;;;20.80;92.40;;;;;;5065986;28;20098;-61
2023/08/27 03:48:21;;;;;;;2.97;1.33;;;20.80;92.40;;;;;;5066182;28;20078;-61
2023/08/27 03:50:46;;;;;;;4.50;1.60;;;20.80;92.30;;;;;;5066601;28;20067;-61
2023/08/27 03:53:12;;;;;;;3.08;1.77;;;20.80;92.30;;;;;;5049174;28;20049;-61
2023/08/27 03:55:41;;;;;;;3.05;1.38;;;20.80;92.30;;;;;;5065617;28;20083;-61
2023/08/27 03:58:07;;;;;;;1.77;1.50;;;20.80;92.30;;;;;;5048149;28;20071;-61
2023/08/27 04:00:33;;;;;;;2.97;1.50;;;20.80;92.30;;;;;;5065829;28;20050;-61
2023/08/27 04:02:59;;;;;;;2.42;1.50;;;20.80;92.30;;;;;;5067037;28;20040;-61
2023/08/27 04:05:25;;;;;;;2.33;1.45;;;20.80;92.20;;;;;;5049040;28;20041;-61
2023/08/27 04:07:50;;;;;;;1.95;1.52;;;20.70;92.20;;;;;;5064223;28;20051;-61
2023/08/27 04:10:16;;;;;;;4.00;1.52;;;20.80;92.30;;;;;;5065521;28;20114;-61
2023/08/27 04:12:42;;;;;;;1.60;1.15;;;20.70;92.30;;;;;;5066932;28;20025;-61
2023/08/27 04:15:08;;;;;;;2.45;1.30;;;20.70;92.30;;;;;;5065404;28;20046;-61
2023/08/27 04:17:33;;;;;;;2.55;1.30;;;20.70;92.20;;;;;;5064587;28;20058;-61
2023/08/27 04:19:59;;;;;;;1.42;1.33;;;20.70;92.20;;;;;;5064499;28;20061;-61
2023/08/27 04:22:24;;;;;;;3.85;1.70;;;20.70;92.20;;;;;;5065118;28;20082;-61
2023/08/27 04:24:50;;;;;;;4.10;1.70;;;20.70;92.30;;;;;;5065289;28;20025;-60
2023/08/27 04:27:16;;;;;;;2.00;1.33;;;20.70;92.30;;;;;;5047071;28;20037;-61
2023/08/27 04:29:43;;;;;;;2.33;1.45;;;20.70;92.30;;;;;;5066163;28;20013;-60
2023/08/27 04:32:08;;;;;;;2.95;2.00;;;20.70;92.30;;;;;;5066398;28;20033;-60
2023/08/27 04:34:34;;;;;;;2.50;1.40;;;20.70;92.30;;;;;;5066447;28;20117;-61
2023/08/27 04:37:01;;;;;;;1.98;1.20;;;20.70;92.30;;;;;;5066057;28;20047;-60
2023/08/27 04:39:26;;;;;;;3.92;1.70;;;20.70;92.30;;;;;;5064818;28;20025;-61
2023/08/27 04:41:52;;;;;;;1.58;1.42;;;20.70;92.30;;;;;;5066338;28;20024;-61
2023/08/27 04:44:18;;;;;;;1.50;1.35;;;20.60;92.30;;;;;;5047958;28;20365;-61
2023/08/27 04:46:43;;;;;;;3.10;1.20;;;20.60;92.20;;;;;;5048165;28;20476;-61
2023/08/27 04:49:09;;;;;;;3.42;1.70;;;20.70;92.30;;;;;;5064795;28;20025;-61
2023/08/27 04:51:34;;;;;;;2.28;1.33;;;20.60;92.30;;;;;;5048182;28;20021;-61
2023/08/27 04:54:01;;;;;;;1.80;1.40;;;20.60;92.30;;;;;;5064733;28;20059;-61
2023/08/27 04:56:27;;;;;;;4.05;1.73;;;20.60;92.30;;;;;;5048158;28;20033;-60
2023/08/27 04:58:53;;;;;;;2.22;1.30;;;20.60;92.30;;;;;;5063327;28;20033;-61
2023/08/27 05:01:18;;;;;;;1.88;1.38;;;20.60;92.30;;;;;;5047231;28;20040;-61
2023/08/27 05:03:44;;;;;;;3.17;1.33;;;20.60;92.20;;;;;;5065500;28;20029;-61
2023/08/27 05:06:10;;;;;;;3.42;1.73;;;20.60;92.20;;;;;;5064809;28;20036;-60
2023/08/27 05:08:35;;;;;;;2.65;1.70;;;20.60;92.20;;;;;;5065758;28;20036;-61
2023/08/27 05:11:01;;;;;;;1.65;1.00;;;20.60;92.20;;;;;;5065578;28;20029;-61
2023/08/27 05:13:26;;;;;;;3.60;1.20;;;20.60;92.20;;;;;;5064075;28;20087;-61
2023/08/27 05:15:52;;;;;;;3.60;1.50;;;20.60;92.20;;;;;;5064310;28;20036;-61
2023/08/27 05:18:18;;;;;;;2.42;1.58;;;20.60;92.20;;;;;;5063138;28;20037;-60
2023/08/27 05:20:44;;;;;;;3.60;1.48;;;20.60;92.20;;;;;;5046520;28;20103;-61
2023/08/27 05:23:10;;;;;;;2.83;1.58;;;20.50;92.20;;;;;;5047200;28;20033;-61
2023/08/27 05:25:35;;;;;;;2.00;1.40;;;20.50;92.20;;;;;;5064423;28;20077;-60
2023/08/27 05:28:02;;;;;;;2.30;1.20;;;20.50;92.20;;;;;;5065335;28;20081;-60
2023/08/27 05:30:28;;;;;;;2.83;1.25;;;20.50;92.20;;;;;;5047513;28;20029;-61
2023/08/27 05:32:54;;;;;;;2.83;1.60;;;20.50;92.20;;;;;;5047248;28;20036;-60
2023/08/27 05:35:19;;;;;;;1.88;1.42;;;20.50;92.20;;;;;;5030696;28;20036;-60
2023/08/27 05:37:45;;;;;;;4.50;1.63;;;20.50;92.20;;;;;;5063519;28;20029;-61
2023/08/27 05:40:11;;;;;;;2.85;1.63;;;20.50;92.30;;;;;;5063801;28;20079;-60
2023/08/27 05:42:37;;;;;;;1.92;1.48;;;20.50;92.30;;;;;;5063683;28;20033;-61
2023/08/27 05:45:05;;;;;;;2.20;1.20;;;20.50;92.30;;;;;;5063811;28;20031;-61
2023/08/27 05:47:31;;;;;;;3.40;1.60;;;20.50;92.30;;;;;;5031226;28;20025;-60
2023/08/27 05:49:56;;;;;;;2.33;1.40;;;20.50;92.30;;;;;;5064961;28;20468;-60
2023/08/27 05:52:22;;;;;;;3.83;1.70;;;20.50;92.30;;;;;;5063644;28;20033;-60
2023/08/27 05:54:48;;;;;;;4.40;1.63;;;20.50;92.30;;;;;;5064779;28;20127;-61
2023/08/27 05:57:13;;;;;;;6.10;1.52;;;20.50;92.30;;;;;;5061963;28;20032;-60
2023/08/27 05:59:39;;;;;;;2.17;1.58;;;20.50;92.60;;;;;;5062831;28;20382;-60
2023/08/27 06:02:04;;;;;;;1.63;1.10;;;20.50;92.30;;;;;;5063494;28;20362;-60
2023/08/27 06:04:30;;;;;;;2.67;1.50;;;20.50;92.30;;;;;;5063495;28;20025;-60
2023/08/27 06:06:56;;;;;;;2.38;1.73;;;20.50;92.30;;;;;;5062526;28;20090;-60
2023/08/27 06:09:21;;;;;;;1.73;1.48;;;20.50;92.30;;;;;;5064809;28;20026;-60
2023/08/27 06:11:47;;;;;;;1.70;1.40;;;20.50;92.30;;;;;;5064824;28;20120;-60
2023/08/27 06:14:12;;;;;;;3.10;1.50;;;20.50;92.20;;;;;;5046666;28;20040;-61
2023/08/27 06:16:38;;;;;;;1.40;1.23;;;20.50;92.20;;;;;;5062595;28;20060;-60
2023/08/27 06:19:04;;;;;;;1.63;1.33;;;20.50;92.30;;;;;;5062354;28;20117;-60
2023/08/27 06:21:30;;;;;;;4.00;1.30;;;20.50;92.30;;;;;;5063353;28;20039;-60
2023/08/27 06:23:55;;;;;;;3.70;1.30;;;20.50;92.30;;;;;;5064483;28;20465;-61
2023/08/27 06:26:21;;;;;;;3.80;1.75;;;20.50;92.30;;;;;;5060509;28;20477;-60
2023/08/27 06:28:46;;;;;;;2.13;1.45;;;20.50;92.30;;;;;;5064659;28;20025;-60
2023/08/27 06:31:12;;;;;;;2.08;1.42;;;20.50;92.20;;;;;;5047554;28;20055;-61
2023/08/27 06:33:38;;;;;;;2.17;1.70;;;20.50;92.20;;;;;;5050750;28;20093;-61
2023/08/27 06:36:05;;;;;;;1.80;1.20;;;20.50;92.20;;;;;;5049722;28;20420;-60
2023/08/27 06:38:30;;;;;;;1.50;1.30;;;20.50;92.20;;;;;;5067267;28;20059;-61
2023/08/27 06:40:56;;;;;;;1.52;1.38;;;20.50;92.20;;;;;;5050419;28;20037;-60
2023/08/27 06:43:21;;;;;;;2.33;1.23;;;20.50;92.20;;;;;;5068464;28;20048;-61
2023/08/27 06:45:47;;;;;;;1.88;1.33;;;20.50;92.20;;;;;;5066278;28;20032;-61
2023/08/27 06:48:13;;;;;;;2.55;1.60;;;20.50;92.20;;;;;;5065627;28;20374;-61
2023/08/27 06:50:38;;;;;;;3.03;1.30;;;20.50;92.20;;;;;;5066797;28;20029;-60
2023/08/27 06:53:04;;;;;;;1.67;1.40;;;20.60;92.20;;;;;;5054053;28;20033;-60
2023/08/27 06:55:30;;;;;;;3.63;1.60;;;20.50;92.20;;;;;;5058974;28;20437;-60
2023/08/27 06:57:55;;;;;;;1.63;1.30;;;20.50;92.20;;;;;;5068287;28;20056;-61
2023/08/27 07:00:21;;;;;;;2.03;1.38;;;20.50;92.20;;;;;;5046775;28;20419;-61
2023/08/27 07:02:47;;;;;;;1.73;1.40;;;20.50;92.30;;;;;;5048110;28;20047;-61
2023/08/27 07:05:12;;;;;;;1.60;1.20;;;20.50;92.20;;;;;;5059448;28;20071;-61
2023/08/27 07:07:38;;;;;;;1.67;1.25;;;20.50;92.20;;;;;;5052323;28;20029;-60
2023/08/27 07:10:04;;;;;;;1.50;1.40;;;20.50;92.20;;;;;;5028008;28;20327;-60
2023/08/27 07:12:33;;;;;;;4.18;1.70;;;20.50;92.20;;;;;;5049405;28;20055;-61
2023/08/27 07:14:59;;;;;;;2.08;1.38;;;20.50;92.30;;;;;;5063708;28;20106;-61
2023/08/27 07:17:24;;;;;;;2.65;1.35;;;20.50;92.30;;;;;;5049072;28;20037;-60
2023/08/27 07:19:50;;;;;;;2.22;1.30;;;20.50;92.20;;;;;;5067483;28;20039;-60
2023/08/27 07:22:15;;;;;;;3.25;1.70;;;20.60;92.20;;;;;;5066231;28;20494;-60
2023/08/27 07:24:42;;;;;;;1.60;1.40;;;20.60;92.20;;;;;;5066385;28;20060;-59
2023/08/27 07:27:09;;;;;;;3.40;1.42;;;20.60;92.20;;;;;;5067936;28;20036;-60
2023/08/27 07:29:35;;;;;;;2.15;1.30;;;20.60;92.20;;;;;;5066437;28;20017;-56
2023/08/27 07:32:00;;;;;;;1.88;1.00;;;20.60;92.20;;;;;;5066203;28;20445;-56
2023/08/27 07:34:26;;;;;;;2.50;1.40;;;20.60;92.10;;;;;;5065655;28;20044;-56
2023/08/27 07:36:54;;;;;;;2.67;1.27;;;20.60;92.10;;;;;;5064702;28;20092;-56
2023/08/27 07:39:19;;;;;;;3.67;1.30;;;20.60;92.00;;;;;;5049511;28;20025;-56
2023/08/27 07:41:45;;;;;;;5.25;1.30;;;20.60;92.30;;;;;;5032251;28;20031;-56
2023/08/27 07:44:10;;;;;;;3.10;1.67;;;20.70;91.90;;;;;;5047450;28;20036;-56
2023/08/27 07:46:36;;;;;;;1.33;1.13;;;20.70;91.90;;;;;;5065929;28;20450;-56
2023/08/27 07:49:01;;;;;;;2.00;1.38;;;20.70;92.00;;;;;;5067107;28;20041;-56
2023/08/27 07:51:27;;;;;;;1.42;1.13;;;20.70;92.00;;;;;;5065800;28;20086;-56
2023/08/27 07:53:52;;;;;;;3.55;1.40;;;20.70;92.00;;;;;;5047980;28;20025;-56
2023/08/27 07:56:18;;;;;;;2.83;1.30;;;20.70;92.00;;;;;;5047732;28;20362;-56
2023/08/27 07:58:44;;;;;;;3.78;1.33;;;20.70;91.90;;;;;;5044982;28;20034;-56
2023/08/27 08:01:09;;;;;;;2.22;1.17;;;20.80;92.00;;;;;;5045134;28;20029;-56
2023/08/27 08:03:35;;;;;;;2.35;1.30;;;20.70;91.80;;;;;;5045267;28;20030;-56
2023/08/27 08:06:01;;;;;;;1.63;1.20;;;20.80;91.80;;;;;;5044164;28;20060;-56
2023/08/27 08:08:27;;;;;;;4.40;1.50;;;20.80;91.80;;;;;;5050333;28;20037;-56
2023/08/27 08:10:56;;;;;;;3.72;1.60;;;20.80;91.80;;;;;;5054317;28;20096;-56
2023/08/27 08:13:22;;;;;;;11.68;2.05;;;20.80;91.80;;;;;;5038981;28;20051;-56
2023/08/27 08:15:48;;;;;;;8.13;1.55;;;20.80;91.80;;;;;;5045674;28;20290;-56
2023/08/27 08:18:14;;;;;;;12.77;1.90;;;20.80;91.80;;;;;;5062546;28;20084;-56
2023/08/27 08:21:16;;;;;;;7.03;1.85;;;20.80;91.80;;;;;;5061247;28;20536;-56
2023/08/27 08:23:42;;;;;;;4.30;1.67;;;20.90;91.80;;;;;;5058372;28;20127;-57
2023/08/27 08:26:09;;;;;;;5.15;1.42;;;20.90;91.80;;;;;;5043661;28;20037;-56
2023/08/27 08:28:34;;;;;;;6.60;1.90;;;20.90;91.70;;;;;;5045626;28;20127;-56
2023/08/27 08:31:00;;;;;;;13.73;2.42;;;20.90;92.00;;;;;;5056921;28;20550;-56
2023/08/27 08:33:25;;;;;;;31.88;4.30;;;20.90;91.60;;;;;;5052535;28;20362;-56
2023/08/27 08:35:51;;;;;;;32.67;5.38;;;21.00;91.70;;;;;;5050060;28;21370;-56
2023/08/27 08:38:16;;;;;;;35.85;4.85;;;21.10;91.70;;;;;;5027164;28;20070;-57
2023/08/27 08:40:47;;;;;;;46.67;5.88;;;21.10;91.90;;;;;;5039863;28;20037;-56
2023/08/27 08:43:38;;;;;;;22.85;4.38;;;21.10;91.80;;;;;;5041590;28;20734;-56
2023/08/27 08:46:05;;;;;;;53.78;7.03;;;21.10;91.70;;;;;;5041226;28;20175;-57
2023/08/27 08:48:41;;;;;;;55.20;7.45;;;21.10;91.70;;;;;;5057633;28;20037;-56
2023/08/27 08:51:08;;;;;;;131.07;13.85;;;21.20;91.80;;;;;;5049278;28;20045;-56
2023/08/27 08:53:37;;;;;;;86.88;9.85;;;21.10;91.90;;;;;;5052969;28;20135;-56
2023/08/27 08:56:04;;;;;;;80.05;10.85;;;21.20;91.90;;;;;;5052842;28;20041;-56
2023/08/27 08:58:31;;;;;;;84.05;10.32;;;21.20;92.00;;;;;;5040927;28;20032;-56
2023/08/27 09:00:57;;;;;;;78.70;11.07;;;21.20;92.10;;;;;;5061111;28;20045;-56
2023/08/27 09:03:23;;;;;;;80.50;10.80;;;21.30;92.00;;;;;;5063070;28;20044;-56
2023/08/27 09:05:50;;;;;;;128.13;13.80;;;21.30;92.00;;;;;;5064199;28;20081;-57
2023/08/27 09:08:15;;;;;;;109.57;12.23;;;21.30;92.10;;;;;;5061793;28;20029;-57
2023/08/27 09:10:41;;;;;;;104.82;16.02;;;21.30;92.00;;;;;;5051938;28;20064;-56
2023/08/27 09:13:07;;;;;;;98.03;13.10;;;21.30;92.20;;;;;;5044972;28;20036;-56
2023/08/27 09:15:32;;;;;;;142.57;18.00;;;21.30;92.20;;;;;;5047444;28;20033;-56
2023/08/27 09:17:58;;;;;;;95.05;11.70;;;21.30;92.40;;;;;;5053527;28;20028;-56
2023/08/27 09:20:24;;;;;;;99.90;12.70;;;21.40;92.20;;;;;;5046480;28;20113;-56
2023/08/27 09:22:50;;;;;;;108.25;13.63;;;21.40;92.20;;;;;;5046881;28;20025;-57
2023/08/27 09:25:16;;;;;;;95.20;13.27;;;21.50;92.20;;;;;;5042495;28;20153;-56
2023/08/27 09:27:41;;;;;;;126.30;15.00;;;21.50;92.10;;;;;;5046204;28;20508;-57
2023/08/27 09:30:07;;;;;;;116.75;15.75;;;21.50;92.10;;;;;;5048835;28;20124;-56
2023/08/27 09:32:33;;;;;;;132.05;18.67;;;21.50;92.20;;;;;;5031256;28;20024;-56
2023/08/27 09:34:59;;;;;;;158.13;19.67;;;21.60;92.50;;;;;;5038971;28;20094;-56
2023/08/27 09:37:27;;;;;;;208.48;21.98;;;21.60;92.50;;;;;;5038083;28;20052;-56
2023/08/27 09:39:52;;;;;;;188.63;22.83;;;21.70;92.50;;;;;;5048363;28;20178;-56
2023/08/27 09:42:18;;;;;;;159.50;21.27;;;21.80;93.00;;;;;;5048902;28;20044;-56
2023/08/27 09:44:50;;;;;;;188.68;22.08;;;21.80;92.40;;;;;;5046526;28;20061;-57
2023/08/27 09:47:16;;;;;;;243.02;27.58;;;21.80;92.20;;;;;;5054834;28;20025;-56
2023/08/27 09:49:42;;;;;;;239.30;26.98;;;21.90;92.10;;;;;;5054161;28;20100;-56
2023/08/27 09:52:08;;;;;;;206.90;23.83;;;21.90;92.10;;;;;;5043972;28;20026;-56
2023/08/27 09:54:33;;;;;;;230.77;25.45;;;21.90;92.10;;;;;;5037622;28;20128;-56
2023/08/27 09:57:01;;;;;;;167.45;22.05;;;21.90;92.10;;;;;;5048355;28;20104;-56
2023/08/27 09:59:28;;;;;;;151.75;20.40;;;22.00;92.00;;;;;;5056862;28;20029;-56
2023/08/27 10:01:53;;;;;;;195.70;22.00;;;21.90;91.90;;;;;;5057049;28;20120;-56
2023/08/27 10:04:20;;;;;;;171.80;22.00;;;21.90;91.80;;;;;;5054517;28;20046;-56
2023/08/27 10:06:45;;;;;;;207.48;23.73;;;22.00;91.90;;;;;;5052902;28;20049;-56
2023/08/27 10:09:11;;;;;;;202.52;23.85;;;22.00;91.80;;;;;;5043807;28;20041;-56
2023/08/27 10:11:37;;;;;;;198.68;25.48;;;22.00;91.90;;;;;;5036630;28;20065;-56
2023/08/27 10:14:03;;;;;;;200.60;23.27;;;22.00;91.90;;;;;;5042086;28;20045;-56
2023/08/27 10:16:34;;;;;;;233.23;27.30;;;22.00;92.00;;;;;;5040120;28;20125;-56
2023/08/27 10:19:01;;;;;;;186.82;23.65;;;22.10;92.00;;;;;;5039636;28;20029;-56
2023/08/27 10:21:26;;;;;;;212.80;23.52;;;22.10;91.90;;;;;;5039942;28;20033;-56
2023/08/27 10:23:52;;;;;;;230.18;24.35;;;22.10;91.90;;;;;;5034492;28;20021;-56
2023/08/27 10:26:17;;;;;;;271.15;29.10;;;22.10;91.90;;;;;;5026952;28;20084;-56
2023/08/27 10:28:44;;;;;;;276.95;31.25;;;22.20;92.10;;;;;;5044238;28;20025;-56
2023/08/27 10:31:09;;;;;;;258.17;28.83;;;22.20;92.30;;;;;;5036382;28;20025;-56
2023/08/27 10:33:35;;;;;;;227.13;26.75;;;22.20;92.30;;;;;;5039076;28;20090;-56
2023/08/27 10:36:05;;;;;;;252.70;30.15;;;22.20;92.10;;;;;;5052828;28;20201;-56
2023/08/27 10:38:33;;;;;;;249.40;27.75;;;22.30;92.00;;;;;;5048429;28;20086;-56
2023/08/27 10:40:58;;;;;;;225.13;26.88;;;22.30;91.90;;;;;;5047484;28;20038;-56
2023/08/27 10:43:24;;;;;;;190.40;23.80;;;22.30;92.00;;;;;;5049227;28;20055;-56
2023/08/27 10:45:50;;;;;;;195.70;24.50;;;22.30;91.80;;;;;;5044786;28;20086;-56
2023/08/27 10:48:22;;;;;;;184.75;23.02;;;22.40;91.80;;;;;;5038392;28;20049;-56
2023/08/27 10:51:08;;;;;;;199.70;23.45;;;22.30;91.70;;;;;;5039725;28;20030;-56
2023/08/27 10:53:49;;;;;;;196.80;24.65;;;22.30;91.60;;;;;;5052284;28;20036;-57
2023/08/27 10:56:36;;;;;;;193.00;22.48;;;22.40;91.60;;;;;;5047304;28;20049;-56
2023/08/27 10:59:09;;;;;;;172.50;22.65;;;22.40;91.40;;;;;;5050507;28;20792;-56
2023/08/27 11:01:37;;;;;;;163.27;22.40;;;22.40;91.20;;;;;;5033797;28;20033;-56
2023/08/27 11:04:06;;;;;;;157.55;21.23;;;22.40;91.00;;;;;;5023479;28;20049;-56
2023/08/27 11:06:51;;;;;;;150.25;19.67;;;22.40;90.80;;;;;;5039228;28;20032;-56
2023/08/27 11:09:16;;;;;;;144.75;20.75;;;22.40;90.80;;;;;;5037323;28;20029;-56
2023/08/27 11:11:48;;;;;;;178.70;23.48;;;22.40;90.70;;;;;;5040311;28;20112;-56
2023/08/27 11:14:14;;;;;;;175.82;22.05;;;22.50;90.70;;;;;;5049650;28;20033;-56
2023/08/27 11:16:53;;;;;;;218.90;27.90;;;22.50;90.70;;;;;;5058487;28;20048;-56
2023/08/27 11:19:26;;;;;;;235.68;28.77;;;22.60;90.60;;;;;;5044798;28;20096;-56
2023/08/27 11:21:52;;;;;;;260.42;29.02;;;22.70;90.50;;;;;;5044180;28;20025;-56
2023/08/27 11:24:21;;;;;;;252.65;29.77;;;22.70;90.40;;;;;;5037959;28;21385;-56
2023/08/27 11:26:47;;;;;;;249.10;26.10;;;22.70;90.20;;;;;;5042781;28;20017;-55
2023/08/27 11:29:13;;;;;;;232.70;27.40;;;22.70;90.00;;;;;;5047171;28;20021;-56
2023/08/27 11:31:43;;;;;;;251.05;29.80;;;22.70;89.80;;;;;;5048691;28;20017;-56
2023/08/27 11:34:15;;;;;;;280.23;30.77;;;22.70;90.00;;;;;;5060157;28;20057;-56
2023/08/27 11:36:45;;;;;;;271.38;30.50;;;22.80;90.00;;;;;;5044392;28;20036;-56
2023/08/27 11:39:14;;;;;;;293.73;33.08;;;22.70;90.00;;;;;;5031979;28;20037;-55
2023/08/27 11:41:40;;;;;;;303.65;32.90;;;22.80;90.00;;;;;;5046342;28;20028;-56
2023/08/27 11:44:08;;;;;;;266.27;29.58;;;22.80;89.70;;;;;;5036535;28;20029;-56
2023/08/27 11:46:34;;;;;;;276.20;33.33;;;22.80;89.60;;;;;;5041479;28;20026;-56
2023/08/27 11:48:59;;;;;;;255.85;34.88;;;22.80;89.50;;;;;;5023769;28;20040;-56
2023/08/27 11:51:25;;;;;;;291.85;32.85;;;22.90;89.30;;;;;;5041013;28;20030;-55
2023/08/27 11:53:51;;;;;;;304.52;35.03;;;22.80;89.30;;;;;;5044059;28;20119;-56
2023/08/27 11:56:17;;;;;;;304.58;33.97;;;22.90;89.40;;;;;;5041225;28;20094;-56
2023/08/27 11:58:44;;;;;;;309.67;34.97;;;22.90;89.30;;;;;;5050209;28;20160;-56
2023/08/27 12:01:13;;;;;;;275.10;33.97;;;23.00;89.60;;;;;;5042368;28;20064;-56
2023/08/27 12:03:38;;;;;;;310.70;34.25;;;23.00;89.80;;;;;;5041775;28;20041;-55
2023/08/27 12:06:04;;;;;;;309.70;32.70;;;23.00;90.10;;;;;;5024229;28;20040;-56
2023/08/27 12:08:37;;;;;;;324.70;35.33;;;23.00;90.20;;;;;;5044845;28;20037;-56
2023/08/27 12:11:02;;;;;;;318.58;35.70;;;23.00;90.30;;;;;;5041671;28;20025;-56
2023/08/27 12:13:28;;;;;;;296.58;34.17;;;23.10;90.50;;;;;;5080805;28;20067;-55
2023/08/27 12:15:54;;;;;;;350.17;40.95;;;23.10;90.40;;;;;;5027201;28;20057;-55
2023/08/27 12:18:19;;;;;;;329.38;39.67;;;23.10;90.50;;;;;;5039607;28;20018;-56
2023/08/27 12:20:49;;;;;;;367.83;41.50;;;23.10;90.60;;;;;;5039984;28;20037;-56
2023/08/27 12:23:15;;;;;;;371.75;43.15;;;23.10;91.00;;;;;;5040123;28;20029;-56
2023/08/27 12:25:47;;;;;;;364.48;44.03;;;23.20;90.80;;;;;;5040299;28;20097;-56
2023/08/27 12:28:13;;;;;;;388.38;47.53;;;23.20;90.90;;;;;;5022029;28;20033;-56
2023/08/27 12:30:45;;;;;;;382.92;46.53;;;23.20;90.90;;;;;;5040451;28;20033;-56
2023/08/27 12:33:10;;;;;;;327.90;40.70;;;23.20;90.90;;;;;;5023991;28;20029;-53
2023/08/27 12:35:37;;;;;;;349.63;39.97;;;23.20;90.70;;;;;;5041434;28;20091;-55